Dobrodošli na spletni strani vremenske postaje Senovo. Vse informacije so informativnega značaja, saj vremenska postaja ni del državne mreže meteoroloških postaj. AKTUALNIH OBVESTIL NI.


Sneg/Led Od: 22-02-2018 00:00 Do: 23-02-2018 23:59 Opozorilo za: Sneg/Led Stopnja: Rumena info button
Veter Od: 22-02-2018 00:00 Do: 23:59 Opozorilo za: Veter Stopnja: Rumena info button

Pogled proti Armezu več informacij Pogled proti Armezu


Lisca več informacij Lisca


Radar strel več informacij blitzortung!


opozorilo za sneg/led več informacij rain snow radar


Obiščite še:

Template documentation
and downloads

And another site



Weather Underground, zgodovina - Tekstovno

Dnevni povzetek za December 13, 2017 Enote:  Angleško    Metrično   Obe
« Predhodni Dan
Naslednji Dan »
Dnevni Tedenski Mesečni Letni Po meri
  Višja: Nižja: Povprečje:
Temperatura: TemperatureC °F 0.8 °F 2.9 °F
Točka rosišča: DewpointC °F -0.3 °F 1.3 °F
Vlažnost: Humidity % 83 % 89 %
Hitrost vetra: WindSpeedKMH mph 0.0 mph 2.5 mph
Sunki vetra: WindSpeedGustKMH mph - -
Veter:- - SSE
Zračni tlak: PressurehPa in 1009.0 in -
Padavine: 9.9 in    
Historical Graphs
 
 
Tabelarni podarki za December 13, 2017
Čas Temperatura Točka rosišča Zračni tlak Veter Hitrost vetra Sunki vetra Vlažnost Intenziteta padavin (urna)
TemperatureC °F DewpointC °F PressurehPa in Calm     Humidity % HourlyPrecipMM in
00:02 7.0 °F 5.9 °F 1012.1 in Calm     93 % 0.3 in
00:07 7.0 °F 5.9 °F 1012.1 in SSE 1.0 mph 5.5 mph 93 % 0.3 in
00:12 7.1 °F 6.1 °F 1012.1 in ESE 5.1 mph 12.2 mph 93 % 0.5 in
00:17 7.3 °F 6.4 °F 1013.1 in ESE 7.6 mph 12.6 mph 94 % 0.5 in
00:27 7.4 °F 6.5 °F 1013.1 in East 10.1 mph 17.2 mph 94 % 0.5 in
00:32 7.0 °F 5.9 °F 1014.1 in ENE 10.8 mph 12.2 mph 93 % 0.5 in
00:37 6.8 °F 5.7 °F 1014.1 in ENE 11.1 mph 13.7 mph 93 % 0.5 in
00:42 6.7 °F 5.7 °F 1014.1 in ENE 9.5 mph 13.7 mph 93 % 0.8 in
00:47 6.4 °F 5.3 °F 1014.1 in NE 6.6 mph 15.8 mph 93 % 0.8 in
00:52 6.1 °F 4.9 °F 1014.1 in NE 7.9 mph 17.7 mph 92 % 1.0 in
00:57 5.8 °F 4.6 °F 1014.1 in NE 9.7 mph 23.3 mph 92 % 1.0 in
01:02 5.5 °F 4.3 °F 1015.1 in NE 9.3 mph 23.3 mph 92 % 1.0 in
01:07 5.3 °F 3.9 °F 1015.1 in NE 8.2 mph 21.6 mph 91 % 1.0 in
01:12 5.1 °F 3.6 °F 1015.1 in NE 9.2 mph 21.6 mph 90 % 0.8 in
01:17 4.9 °F 3.4 °F 1014.1 in NE 9.7 mph 21.2 mph 90 % 0.8 in
01:22 4.8 °F 3.3 °F 1014.1 in NE 9.3 mph 21.2 mph 90 % 0.8 in
01:27 4.6 °F 2.9 °F 1014.1 in NE 9.8 mph 19.5 mph 89 % 0.5 in
01:32 4.5 °F 2.7 °F 1015.1 in NE 7.9 mph 13.7 mph 88 % 1.0 in
01:37 4.3 °F 2.5 °F 1015.1 in ENE 7.2 mph 14.0 mph 88 % 1.3 in
01:42 4.1 °F 2.3 °F 1015.1 in ENE 9.0 mph 23.8 mph 88 % 1.0 in
01:47 4.0 °F 2.1 °F 1014.1 in East 9.2 mph 23.8 mph 87 % 1.3 in
01:52 3.8 °F 1.8 °F 1014.1 in ENE 11.1 mph 28.5 mph 87 % 1.3 in
01:57 3.7 °F 1.7 °F 1014.1 in ENE 14.2 mph 28.5 mph 87 % 1.3 in
02:02 3.6 °F 1.6 °F 1015.1 in ENE 12.9 mph 28.5 mph 87 % 1.8 in
02:07 3.6 °F 1.6 °F 1015.1 in East 11.1 mph 23.0 mph 87 % 2.0 in
02:12 3.4 °F 1.4 °F 1015.1 in ENE 11.6 mph 23.3 mph 87 % 2.0 in
02:17 3.4 °F 1.3 °F 1016.1 in ENE 13.5 mph 27.7 mph 86 % 2.0 in
02:22 3.4 °F 1.3 °F 1016.1 in East 15.0 mph 27.7 mph 86 % 2.0 in
02:27 3.4 °F 1.3 °F 1016.1 in ENE 14.3 mph 24.8 mph 86 % 2.0 in
02:32 3.4 °F 1.3 °F 1016.1 in East 13.4 mph 24.8 mph 86 % 1.8 in
02:37 3.3 °F 1.2 °F 1016.1 in East 12.6 mph 25.6 mph 86 % 1.8 in
02:47 3.3 °F 1.2 °F 1016.1 in East 14.3 mph 35.6 mph 86 % 1.5 in
02:52 3.2 °F 1.1 °F 1016.1 in East 15.0 mph 35.6 mph 86 % 1.5 in
02:57 3.2 °F 1.1 °F 1016.1 in East 14.2 mph 23.3 mph 86 % 1.5 in
03:02 3.1 °F 1.0 °F 1016.1 in East 11.7 mph 20.9 mph 86 % 1.5 in
03:12 3.0 °F 0.9 °F 1016.1 in ESE 6.4 mph 13.7 mph 86 % 1.3 in
03:17 3.0 °F 0.9 °F 1016.8 in SE 6.8 mph 14.0 mph 86 % 1.3 in
03:22 2.9 °F 0.8 °F 1016.8 in ESE 7.2 mph 14.0 mph 86 % 1.3 in
03:27 2.9 °F 0.8 °F 1016.8 in ESE 4.5 mph 9.3 mph 86 % 1.5 in
03:32 2.8 °F 0.7 °F 1016.8 in SE 3.9 mph 6.9 mph 86 % 1.5 in
03:37 2.8 °F 0.7 °F 1016.8 in SE 5.3 mph 9.3 mph 86 % 1.5 in
03:42 2.7 °F 0.6 °F 1016.8 in SE 5.0 mph 9.3 mph 86 % 1.5 in
03:47 2.7 °F 0.6 °F 1016.8 in SSE 4.5 mph 9.7 mph 86 % 1.5 in
03:52 2.6 °F 0.5 °F 1016.8 in SSE 4.8 mph 9.7 mph 86 % 1.5 in
03:57 2.5 °F 0.4 °F 1016.8 in South 5.0 mph 8.7 mph 86 % 1.5 in
04:02 2.4 °F 0.3 °F 1016.8 in South 5.1 mph 9.0 mph 86 % 1.8 in
04:07 2.3 °F 0.2 °F 1016.8 in South 5.5 mph 9.0 mph 86 % 1.8 in
04:13 2.3 °F 0.2 °F 1016.8 in South 5.1 mph 10.1 mph 86 % 1.8 in
04:18 2.2 °F 0.1 °F 1016.1 in South 4.8 mph 10.1 mph 86 % 2.0 in
04:22 2.1 °F 0.0 °F 1016.1 in SSE 5.0 mph 10.1 mph 86 % 2.0 in
04:23 2.1 °F 0.0 °F 1016.1 in South 4.5 mph 10.1 mph 86 % 1.8 in
04:28 2.0 °F -0.1 °F 1016.1 in South 3.5 mph 10.1 mph 86 % 2.0 in
04:33 2.0 °F 0.1 °F 1016.1 in South 3.9 mph 6.9 mph 87 % 2.0 in
04:38 2.0 °F 0.1 °F 1016.1 in South 4.5 mph 6.9 mph 87 % 1.8 in
04:43 1.9 °F -0.1 °F 1016.8 in South 4.2 mph 6.1 mph 87 % 2.0 in
04:48 1.9 °F -0.1 °F 1016.8 in South 3.5 mph 6.1 mph 87 % 1.8 in
04:53 1.9 °F -0.1 °F 1016.8 in South 3.7 mph 6.9 mph 87 % 1.8 in
04:58 1.9 °F -0.1 °F 1016.1 in South 3.9 mph 6.9 mph 87 % 1.5 in
05:03 1.9 °F 0.1 °F 1016.1 in South 3.4 mph 6.1 mph 88 % 1.0 in
05:08 1.9 °F 0.1 °F 1016.1 in South 3.2 mph 5.8 mph 88 % 1.0 in
05:13 1.9 °F 0.1 °F 1016.8 in South 4.7 mph 9.7 mph 88 % 1.0 in
05:18 1.9 °F 0.1 °F 1016.8 in South 5.0 mph 9.7 mph 88 % 1.0 in
05:23 1.9 °F 0.1 °F 1016.8 in SSE 3.9 mph 6.4 mph 88 % 1.0 in
05:33 1.9 °F 0.1 °F 1016.8 in SE 1.9 mph 4.3 mph 88 % 0.8 in
05:38 1.9 °F 0.1 °F 1016.8 in South 1.1 mph 4.0 mph 88 % 0.8 in
05:43 1.9 °F 0.1 °F 1016.8 in South 2.1 mph 5.5 mph 88 % 0.5 in
05:48 1.9 °F 0.1 °F 1016.8 in South 3.2 mph 5.5 mph 88 % 0.5 in
05:53 1.9 °F 0.3 °F 1016.8 in SSE 1.8 mph 5.5 mph 89 % 0.5 in
05:58 1.9 °F 0.3 °F 1018.2 in SE 1.9 mph 5.5 mph 89 % 0.8 in
06:03 2.0 °F 0.2 °F 1018.2 in SE 2.6 mph 6.1 mph 88 % 0.8 in
06:08 2.0 °F 0.2 °F 1018.2 in SE 2.1 mph 6.1 mph 88 % 0.8 in
06:13 2.0 °F 0.4 °F 1018.2 in SE 2.1 mph 5.5 mph 89 % 0.5 in
06:18 2.0 °F 0.4 °F 1018.2 in SE 1.6 mph 5.0 mph 89 % 0.5 in
06:23 2.0 °F 0.4 °F 1018.2 in SE 2.7 mph 5.8 mph 89 % 0.5 in
06:28 2.1 °F 0.5 °F 1018.2 in SSE 2.9 mph 5.8 mph 89 % 0.5 in
06:33 2.0 °F 0.4 °F 1018.2 in East 1.3 mph 5.0 mph 89 % 0.3 in
06:38 2.0 °F 0.4 °F 1018.2 in NE 0.3 mph 3.5 mph 89 % 0.3 in
06:44 2.1 °F 0.5 °F 1018.8 in South 0.6 mph 4.0 mph 89 % 0.3 in
06:49 2.0 °F 0.4 °F 1018.8 in SSW 1.3 mph 4.3 mph 89 % 0.3 in
06:54 2.0 °F 0.4 °F 1018.8 in SSW 1.8 mph 4.3 mph 89 % 0.3 in
06:59 2.0 °F 0.4 °F 1018.8 in SW 1.0 mph 4.3 mph 89 % 0.3 in
07:04 2.0 °F 0.4 °F 1018.8 in North 0.2 mph   89 % 0.3 in
07:09 2.0 °F 0.4 °F 1018.8 in Calm     89 % 0.3 in
07:14 2.0 °F 0.6 °F 1018.8 in Calm     90 % 0.3 in
07:19 2.0 °F 0.6 °F 1018.8 in WSW 1.0 mph 6.4 mph 90 % 0.3 in
07:24 1.9 °F 0.4 °F 1018.8 in WSW 2.3 mph 6.4 mph 90 % 0.3 in
07:29 1.9 °F 0.4 °F 1018.8 in WSW 1.4 mph 5.5 mph 90 % 0.3 in
07:34 1.9 °F 0.4 °F 1018.8 in WNW 0.3 mph 3.5 mph 90 % 0.3 in
07:39 1.9 °F 0.4 °F 1018.8 in Calm     90 % 0.3 in
07:44 1.9 °F 0.4 °F 1018.8 in Calm     90 % 0.3 in
07:49 1.9 °F 0.6 °F 1018.8 in Calm     91 % 0.3 in
07:54 1.9 °F 0.6 °F 1018.8 in Calm     91 % 0.3 in
07:59 1.9 °F 0.6 °F 1018.2 in WNW 0.5 mph 4.0 mph 91 % 0.0 in
08:04 1.9 °F 0.6 °F 1018.2 in West 1.3 mph 4.3 mph 91 % 0.3 in
08:09 1.9 °F 0.6 °F 1018.2 in West 0.8 mph 4.3 mph 91 % 0.3 in
08:15 1.9 °F 0.6 °F 1018.2 in Calm     91 % 0.3 in
08:20 1.9 °F 0.6 °F 1018.2 in Calm     91 % 0.3 in
08:25 1.9 °F 0.6 °F 1018.2 in Calm   1.4 mph 91 % 0.3 in
08:30 1.9 °F 0.6 °F 1018.8 in SSW 0.5 mph 3.5 mph 91 % 0.3 in
08:35 1.9 °F 0.6 °F 1018.8 in SSW 0.5 mph 3.5 mph 91 % 0.3 in
08:40 2.0 °F 0.7 °F 1018.8 in Calm     91 % 0.3 in
08:45 2.0 °F 0.7 °F 1018.8 in Calm     91 % 0.3 in
08:55 2.0 °F 0.7 °F 1018.8 in Calm     91 % 0.3 in
09:00 2.0 °F 0.7 °F 1018.8 in Calm     91 % 0.3 in
09:05 2.0 °F 0.7 °F 1018.8 in Calm     91 % 0.0 in
09:10 2.1 °F 0.9 °F 1018.8 in Calm     92 % 0.0 in
09:15 2.1 °F 0.9 °F 1018.8 in Calm     92 % 0.0 in
09:20 2.2 °F 1.1 °F 1018.8 in Calm     92 % 0.0 in
09:25 2.2 °F 1.1 °F 1018.8 in NW 1.0 mph 4.7 mph 92 % 0.0 in
09:30 2.2 °F 1.1 °F 1018.8 in NW 1.1 mph 4.7 mph 92 % 0.0 in
09:35 2.3 °F 1.1 °F 1018.8 in Calm   1.8 mph 92 % 0.0 in
09:40 2.3 °F 1.1 °F 1018.8 in Calm     92 % 0.0 in
09:45 2.4 °F 1.2 °F 1018.8 in ENE 0.5 mph 4.0 mph 92 % 0.0 in
09:50 2.5 °F 1.3 °F 1018.8 in ENE 0.3 mph 4.0 mph 92 % 0.0 in
09:55 2.5 °F 1.3 °F 1018.8 in WSW 0.2 mph 2.6 mph 92 % 0.0 in
10:00 2.6 °F 1.6 °F 1019.9 in WSW 0.2 mph 2.6 mph 93 % 0.0 in
10:06 2.7 °F 1.7 °F 1019.9 in WSW 0.5 mph 3.2 mph 93 % 0.0 in
10:07 2.7 °F 1.7 °F 1019.9 in WSW 0.5 mph 3.2 mph 93 % 0.0 in
10:12 2.7 °F 1.7 °F 1019.9 in WNW 0.5 mph 3.2 mph 93 % 0.0 in
10:23 2.8 °F 1.8 °F 1018.8 in NNW 0.3 mph 1.8 mph 93 % 0.0 in
10:28 3.0 °F 2.0 °F 1018.8 in Calm     93 % 0.0 in
10:32 3.1 °F 2.1 °F 1018.8 in Calm     93 % 0.0 in
10:37 3.3 °F 2.3 °F 1018.8 in Calm   1.4 mph 93 % 0.0 in
10:42 3.3 °F 2.3 °F 1018.2 in Calm   1.4 mph 93 % 0.0 in
10:48 3.4 °F 2.4 °F 1018.2 in SW 0.3 mph 2.6 mph 93 % 0.0 in
10:52 3.5 °F 2.5 °F 1018.2 in SW 1.1 mph 5.8 mph 93 % 0.0 in
10:57 3.6 °F 2.6 °F 1018.8 in SSW 2.6 mph 5.8 mph 93 % 0.0 in
11:02 3.7 °F 2.7 °F 1018.8 in SSW 3.7 mph 5.0 mph 93 % 0.0 in
11:07 3.7 °F 2.7 °F 1018.8 in SSW 3.1 mph 4.7 mph 93 % 0.0 in
11:13 3.8 °F 2.8 °F 1018.8 in SSW 3.1 mph 5.5 mph 93 % 0.0 in
11:17 4.0 °F 2.9 °F 1018.8 in SSW 3.9 mph 5.8 mph 93 % 0.0 in
11:22 4.1 °F 3.1 °F 1018.8 in SSW 3.9 mph 5.8 mph 93 % 0.0 in
11:28 4.1 °F 3.1 °F 1018.8 in SSW 3.4 mph 6.9 mph 93 % 0.0 in
11:33 4.2 °F 3.2 °F 1018.8 in South 4.3 mph 6.9 mph 93 % 0.0 in
11:38 4.2 °F 3.2 °F 1018.8 in South 4.7 mph 6.9 mph 93 % 0.0 in
11:43 4.2 °F 3.2 °F 1016.8 in South 3.9 mph 5.8 mph 93 % 0.0 in
11:48 4.2 °F 3.2 °F 1016.8 in South 4.2 mph 6.4 mph 93 % 0.0 in
11:52 4.3 °F 3.3 °F 1016.8 in South 4.5 mph 8.7 mph 93 % 0.0 in
11:57 4.3 °F 3.3 °F 1018.2 in SSW 4.7 mph 8.7 mph 93 % 0.0 in
12:03 4.3 °F 3.3 °F 1018.2 in SW 3.7 mph 6.9 mph 93 % 0.0 in
12:07 4.3 °F 3.3 °F 1018.2 in SSW 1.8 mph 4.3 mph 93 % 0.0 in
12:12 4.4 °F 3.4 °F 1018.2 in SW 1.1 mph 4.0 mph 93 % 0.0 in
12:18 4.4 °F 3.4 °F 1018.2 in SW 1.1 mph 4.0 mph 93 % 0.0 in
12:23 4.4 °F 3.2 °F 1018.2 in WNW 0.8 mph 4.0 mph 92 % 0.0 in
12:28 4.3 °F 3.1 °F 1016.8 in WNW 1.0 mph 4.0 mph 92 % 0.0 in
12:33 4.3 °F 3.1 °F 1016.8 in NW 0.5 mph 3.2 mph 92 % 0.0 in
12:38 4.4 °F 3.2 °F 1016.8 in SW 0.5 mph 4.7 mph 92 % 0.0 in
12:43 4.4 °F 3.2 °F 1016.8 in SW 2.4 mph 5.5 mph 92 % 0.0 in
12:48 4.5 °F 3.3 °F 1016.8 in WSW 4.2 mph 5.5 mph 92 % 0.0 in
12:53 4.5 °F 3.2 °F 1016.8 in WSW 4.2 mph 5.5 mph 91 % 0.0 in
12:58 4.4 °F 3.1 °F 1016.8 in WSW 3.5 mph 5.5 mph 91 % 0.0 in
13:03 4.5 °F 3.2 °F 1016.8 in WSW 2.3 mph 4.3 mph 91 % 0.0 in
13:08 4.6 °F 3.3 °F 1016.8 in SW 2.1 mph 6.4 mph 91 % 0.0 in
13:13 4.5 °F 3.2 °F 1016.1 in SW 3.7 mph 6.4 mph 91 % 0.0 in
13:18 4.5 °F 3.0 °F 1016.1 in SW 4.3 mph 6.1 mph 90 % 0.0 in
13:23 4.5 °F 3.0 °F 1016.1 in SW 3.5 mph 5.5 mph 90 % 0.0 in
13:28 4.5 °F 3.0 °F 1016.1 in SSW 2.4 mph 5.5 mph 90 % 0.0 in
13:33 4.5 °F 3.0 °F 1016.1 in SSE 2.3 mph 4.3 mph 90 % 0.0 in
13:38 4.6 °F 2.9 °F 1016.1 in SE 1.9 mph 4.3 mph 89 % 0.0 in
13:43 4.6 °F 2.9 °F 1018.2 in South 0.8 mph 3.5 mph 89 % 0.0 in
13:48 4.6 °F 2.9 °F 1018.2 in SW 1.9 mph 4.7 mph 89 % 0.0 in
13:53 4.5 °F 2.7 °F 1018.2 in SW 2.3 mph 4.7 mph 88 % 0.0 in
13:58 4.4 °F 2.6 °F 1016.8 in South 1.4 mph 5.0 mph 88 % 0.0 in
14:03 4.4 °F 2.6 °F 1016.8 in SSW 1.0 mph 5.0 mph 88 % 0.0 in
14:08 4.5 °F 2.7 °F 1016.8 in SW 0.2 mph 2.1 mph 88 % 0.0 in
14:13 4.6 °F 2.6 °F 1016.1 in SSE 0.6 mph 4.7 mph 87 % 0.0 in
14:18 4.7 °F 2.7 °F 1016.1 in SSE 1.0 mph 4.7 mph 87 % 0.0 in
14:23 4.7 °F 2.7 °F 1016.1 in SSE 1.4 mph 4.3 mph 87 % 0.0 in
14:28 4.6 °F 2.6 °F 1016.8 in SSE 1.1 mph 4.3 mph 87 % 0.0 in
14:33 4.5 °F 2.5 °F 1016.8 in Calm   1.4 mph 87 % 0.0 in
14:38 4.5 °F 2.3 °F 1016.8 in Calm   4.0 mph 86 % 0.0 in
14:43 4.4 °F 2.3 °F 1016.8 in SSW 1.3 mph 4.0 mph 86 % 0.0 in
14:48 4.3 °F 2.2 °F 1016.8 in South 1.8 mph 4.3 mph 86 % 0.0 in
14:53 4.3 °F 2.2 °F 1016.8 in SE 1.0 mph 4.3 mph 86 % 0.0 in
14:58 4.3 °F 2.0 °F 1016.1 in SE 1.3 mph 5.0 mph 85 % 0.0 in
15:00 4.3 °F 2.0 °F 1016.1 in SE 1.9 mph 5.0 mph 85 % 0.0 in
15:05 4.2 °F 1.9 °F 1016.1 in SE 3.1 mph 6.4 mph 85 % 0.0 in
15:10 4.2 °F 1.9 °F 1016.1 in SE 2.9 mph 6.4 mph 85 % 0.0 in
15:15 4.1 °F 1.8 °F 1016.1 in SE 3.4 mph 7.6 mph 85 % 0.0 in
15:20 4.1 °F 1.8 °F 1016.1 in SE 2.7 mph 7.6 mph 85 % 0.0 in
15:25 4.0 °F 1.6 °F 1016.1 in SE 0.6 mph 3.5 mph 84 % 0.0 in
15:35 3.7 °F 1.2 °F 1016.1 in WSW 3.4 mph 8.7 mph 84 % 0.3 in
15:40 3.4 °F 0.9 °F 1016.1 in West 4.7 mph 8.7 mph 84 % 0.5 in
15:45 3.3 °F 0.8 °F 1016.1 in West 2.4 mph 6.1 mph 84 % 0.8 in
15:49 3.0 °F 0.4 °F 1016.1 in West 0.5 mph 4.0 mph 83 % 0.8 in
15:54 2.9 °F 0.4 °F 1016.1 in Calm     84 % 0.8 in
15:59 2.8 °F 0.4 °F 1016.1 in NE 1.0 mph 5.0 mph 84 % 1.0 in
16:04 2.7 °F 0.3 °F 1016.1 in NE 1.0 mph 5.0 mph 84 % 1.0 in
16:09 2.6 °F 0.2 °F 1016.1 in NE 0.6 mph 3.2 mph 84 % 1.3 in
16:14 2.5 °F 0.1 °F 1016.1 in NE 1.0 mph 4.0 mph 84 % 1.3 in
16:19 2.4 °F -0.1 °F 1016.1 in NE 0.8 mph 4.0 mph 84 % 1.3 in
16:24 2.4 °F -0.1 °F 1016.1 in NNE 0.5 mph 3.5 mph 84 % 1.3 in
16:29 2.3 °F -0.1 °F 1016.1 in Calm     84 % 1.3 in
16:34 2.3 °F -0.1 °F 1016.1 in Calm     84 % 1.0 in
16:44 2.3 °F -0.1 °F 1015.1 in East 0.2 mph 2.6 mph 84 % 0.5 in
16:49 2.3 °F -0.1 °F 1015.1 in East 0.2 mph 2.6 mph 84 % 0.5 in
16:54 2.2 °F -0.1 °F 1015.1 in Calm   1.4 mph 85 % 0.5 in
16:59 2.2 °F -0.1 °F 1015.1 in Calm     85 % 0.5 in
17:04 2.1 °F -0.2 °F 1015.1 in Calm     85 % 0.5 in
17:09 2.1 °F -0.2 °F 1015.1 in Calm     85 % 0.3 in
17:14 2.0 °F -0.3 °F 1014.1 in Calm     85 % 0.3 in
17:19 2.0 °F -0.3 °F 1014.1 in SW 0.6 mph 3.5 mph 85 % 0.3 in
17:24 2.0 °F -0.1 °F 1014.1 in SW 1.3 mph 3.5 mph 86 % 0.3 in
17:29 1.9 °F -0.2 °F 1014.1 in SW 0.8 mph 2.6 mph 86 % 0.3 in
17:34 1.9 °F -0.2 °F 1014.1 in Calm     86 % 0.3 in
17:39 1.9 °F -0.2 °F 1014.1 in Calm     86 % 0.3 in
17:44 1.9 °F -0.1 °F 1015.1 in Calm     87 % 0.0 in
17:45 1.9 °F -0.1 °F 1015.1 in Calm     87 % 0.0 in
17:50 1.9 °F -0.1 °F 1015.1 in Calm     87 % 0.0 in
17:55 1.9 °F -0.1 °F 1015.1 in Calm     87 % 0.0 in
18:00 1.9 °F -0.1 °F 1015.1 in Calm     87 % 0.0 in
18:10 1.9 °F -0.1 °F 1015.1 in Calm     87 % 0.0 in
18:15 1.8 °F 0.0 °F 1015.1 in Calm     88 % 0.0 in
18:20 1.8 °F 0.0 °F 1015.1 in Calm     88 % 0.0 in
18:25 1.8 °F 0.0 °F 1015.1 in Calm     88 % 0.0 in
18:30 1.8 °F 0.0 °F 1014.1 in Calm     88 % 0.0 in
18:35 1.8 °F 0.0 °F 1014.1 in Calm     88 % 0.0 in
18:40 1.8 °F 0.0 °F 1014.1 in Calm     88 % 0.0 in
18:45 1.8 °F 0.0 °F 1015.1 in SSW 0.5 mph 3.2 mph 88 % 0.0 in
18:50 1.8 °F 0.2 °F 1015.1 in SSW 0.3 mph 3.2 mph 89 % 0.0 in
18:55 1.9 °F 0.3 °F 1015.1 in Calm     89 % 0.0 in
19:00 1.9 °F 0.3 °F 1014.1 in Calm     89 % 0.0 in
19:05 1.9 °F 0.3 °F 1014.1 in Calm     89 % 0.0 in
19:10 1.9 °F 0.3 °F 1014.1 in Calm   3.5 mph 89 % 0.0 in
19:15 1.9 °F 0.3 °F 1014.1 in Calm   3.5 mph 89 % 0.0 in
19:20 1.9 °F 0.3 °F 1014.1 in Calm   3.5 mph 89 % 0.0 in
19:25 1.9 °F 0.3 °F 1014.1 in Calm     89 % 0.0 in
19:30 2.0 °F 0.4 °F 1014.1 in Calm     89 % 0.0 in
19:35 2.0 °F 0.4 °F 1014.1 in Calm     89 % 0.0 in
19:40 2.0 °F 0.6 °F 1014.1 in Calm     90 % 0.0 in
19:45 2.0 °F 0.6 °F 1013.1 in Calm     90 % 0.0 in
19:50 2.0 °F 0.6 °F 1013.1 in Calm     90 % 0.0 in
19:55 2.0 °F 0.6 °F 1013.1 in Calm     90 % 0.0 in
20:00 2.0 °F 0.6 °F 1013.1 in Calm     90 % 0.0 in
20:05 2.0 °F 0.6 °F 1013.1 in Calm     90 % 0.0 in
20:10 2.0 °F 0.6 °F 1013.1 in Calm     90 % 0.0 in
20:16 2.0 °F 0.7 °F 1012.1 in Calm     91 % 0.0 in
20:21 2.0 °F 0.7 °F 1012.1 in Calm   1.4 mph 91 % 0.0 in
20:26 2.0 °F 0.7 °F 1012.1 in West 0.2 mph 4.0 mph 91 % 0.0 in
20:31 2.0 °F 0.7 °F 1013.1 in West 0.2 mph 4.0 mph 91 % 0.0 in
20:36 2.0 °F 0.7 °F 1013.1 in Calm     91 % 0.0 in
20:41 2.0 °F 0.7 °F 1013.1 in Calm     91 % 0.0 in
20:46 2.0 °F 0.7 °F 1013.1 in Calm     91 % 0.0 in
20:51 2.0 °F 0.7 °F 1013.1 in Calm     91 % 0.0 in
20:56 2.0 °F 0.7 °F 1013.1 in Calm     91 % 0.0 in
21:01 2.0 °F 0.8 °F 1013.1 in SW 0.5 mph 4.3 mph 92 % 0.0 in
21:06 2.0 °F 0.8 °F 1013.1 in WSW 2.1 mph 5.0 mph 92 % 0.0 in
21:11 2.0 °F 0.8 °F 1013.1 in WSW 1.8 mph 5.0 mph 92 % 0.0 in
21:16 2.0 °F 0.8 °F 1013.1 in Calm   1.8 mph 92 % 0.0 in
21:21 2.0 °F 0.8 °F 1013.1 in Calm     92 % 0.0 in
21:26 2.0 °F 0.8 °F 1013.1 in WSW 0.6 mph 4.0 mph 92 % 0.0 in
21:31 1.9 °F 0.7 °F 1012.1 in SW 2.3 mph 4.3 mph 92 % 0.0 in
21:36 1.9 °F 0.7 °F 1012.1 in SW 3.2 mph 4.7 mph 92 % 0.0 in
21:41 1.9 °F 0.9 °F 1012.1 in WSW 1.4 mph 4.7 mph 93 % 0.0 in
21:46 1.9 °F 0.9 °F 1012.1 in South 0.8 mph 4.0 mph 93 % 0.0 in
21:51 1.9 °F 0.9 °F 1012.1 in South 1.6 mph 4.3 mph 93 % 0.0 in
21:56 1.9 °F 0.9 °F 1012.1 in SSW 1.0 mph 4.3 mph 93 % 0.0 in
22:01 1.9 °F 0.9 °F 1011.1 in South 0.3 mph 3.2 mph 93 % 0.0 in
22:06 1.8 °F 0.8 °F 1011.1 in North 0.2 mph   93 % 0.0 in
22:11 1.8 °F 0.8 °F 1011.1 in Calm     93 % 0.0 in
22:16 1.7 °F 0.7 °F 1011.1 in Calm   2.6 mph 93 % 0.0 in
22:21 1.7 °F 0.7 °F 1011.1 in Calm   2.6 mph 93 % 0.0 in
22:26 1.7 °F 0.7 °F 1011.1 in Calm     93 % 0.0 in
22:31 1.7 °F 0.7 °F 1011.1 in Calm     93 % 0.0 in
22:36 1.7 °F 0.7 °F 1011.1 in SSW 0.5 mph 4.0 mph 93 % 0.0 in
22:41 1.7 °F 0.7 °F 1011.1 in SSW 1.4 mph 4.0 mph 93 % 0.0 in
22:46 1.7 °F 0.7 °F 1012.1 in SSW 1.3 mph 4.0 mph 93 % 0.0 in
22:51 1.7 °F 0.7 °F 1012.1 in SSW 0.5 mph 3.5 mph 93 % 0.0 in
22:56 1.7 °F 0.7 °F 1012.1 in Calm     93 % 0.0 in
23:01 1.6 °F 0.6 °F 1011.1 in Calm   2.6 mph 93 % 0.0 in
23:06 1.6 °F 0.6 °F 1011.1 in SW 0.5 mph 3.5 mph 93 % 0.0 in
23:11 1.5 °F 0.5 °F 1011.1 in SSW 1.1 mph 4.3 mph 93 % 0.0 in
23:16 1.5 °F 0.5 °F 1011.1 in SSW 2.1 mph 4.3 mph 93 % 0.0 in
23:26 1.4 °F 0.4 °F 1011.1 in SSW 1.3 mph 4.3 mph 93 % 0.0 in
23:31 1.3 °F 0.3 °F 1010.0 in SSW 1.1 mph 4.3 mph 93 % 0.0 in
23:36 1.2 °F 0.2 °F 1010.0 in South 1.4 mph 4.7 mph 93 % 0.0 in
23:41 1.1 °F 0.1 °F 1010.0 in South 1.1 mph 4.7 mph 93 % 0.0 in
23:46 1.0 °F 0.0 °F 1009.0 in North 0.2 mph   93 % 0.0 in
23:51 1.0 °F 0.0 °F 1009.0 in Calm     93 % 0.0 in
23:56 0.8 °F -0.2 °F 1009.0 in Calm     93 % 0.0 in
Vremenska postaja Senovo
Podatki zbrani iz Weather Underground - 2.75 mb

Script developed by  Jim McMurry - jmcmurry@mwt.net Adapted for the template by  Wim van der Kuil - Leuven-Template.eu

Vremenski podatki so objavljeni na:

European Weather Network

WeatherCloud

Weather Underground

AWEKAS

HAMweather, WeatherForYou, PWS Weather

MapView

Geostik

Slovenia weather network

Oprema, ki se uporablja:

Vremenski program
Cumulus

Vremenski server
Asus

Cumulus

Asus